sensor_id;sensor_type;location;lat;lon;timestamp;P1;durP1;ratioP1;P2;durP2;ratioP2
52031;SDS011;38044;45.148;39.604;2023-10-31T00:00:34;20.42;;;11.93;;
52031;SDS011;38044;45.148;39.604;2023-10-31T00:03:00;23.70;;;12.52;;
52031;SDS011;38044;45.148;39.604;2023-10-31T00:05:26;22.30;;;12.32;;
52031;SDS011;38044;45.148;39.604;2023-10-31T00:07:52;24.42;;;12.90;;
52031;SDS011;38044;45.148;39.604;2023-10-31T00:10:17;23.65;;;12.77;;
52031;SDS011;38044;45.148;39.604;2023-10-31T00:12:43;24.05;;;12.25;;
52031;SDS011;38044;45.148;39.604;2023-10-31T00:15:09;21.75;;;12.25;;
52031;SDS011;38044;45.148;39.604;2023-10-31T00:17:35;26.55;;;13.48;;
52031;SDS011;38044;45.148;39.604;2023-10-31T00:20:01;24.05;;;13.20;;
52031;SDS011;38044;45.148;39.604;2023-10-31T00:22:27;26.33;;;12.15;;
52031;SDS011;38044;45.148;39.604;2023-10-31T00:24:53;23.48;;;12.73;;
52031;SDS011;38044;45.148;39.604;2023-10-31T00:27:19;26.42;;;12.23;;
52031;SDS011;38044;45.148;39.604;2023-10-31T00:29:44;22.63;;;11.55;;
52031;SDS011;38044;45.148;39.604;2023-10-31T00:32:10;23.92;;;12.43;;
52031;SDS011;38044;45.148;39.604;2023-10-31T00:34:36;21.80;;;12.50;;
52031;SDS011;38044;45.148;39.604;2023-10-31T00:37:02;22.10;;;12.82;;
52031;SDS011;38044;45.148;39.604;2023-10-31T00:39:28;22.85;;;12.38;;
52031;SDS011;38044;45.148;39.604;2023-10-31T00:41:54;23.15;;;13.45;;
52031;SDS011;38044;45.148;39.604;2023-10-31T00:44:20;26.08;;;14.20;;
52031;SDS011;38044;45.148;39.604;2023-10-31T00:46:45;24.52;;;14.60;;
52031;SDS011;38044;45.148;39.604;2023-10-31T00:49:11;31.60;;;16.77;;
52031;SDS011;38044;45.148;39.604;2023-10-31T00:51:37;26.42;;;14.23;;
52031;SDS011;38044;45.148;39.604;2023-10-31T00:54:03;24.33;;;14.52;;
52031;SDS011;38044;45.148;39.604;2023-10-31T00:56:29;27.75;;;15.40;;
52031;SDS011;38044;45.148;39.604;2023-10-31T00:58:54;27.85;;;14.75;;
52031;SDS011;38044;45.148;39.604;2023-10-31T01:01:20;26.60;;;14.95;;
52031;SDS011;38044;45.148;39.604;2023-10-31T01:03:46;23.38;;;13.50;;
52031;SDS011;38044;45.148;39.604;2023-10-31T01:06:12;23.92;;;14.20;;
52031;SDS011;38044;45.148;39.604;2023-10-31T01:08:37;29.75;;;16.02;;
52031;SDS011;38044;45.148;39.604;2023-10-31T01:11:03;22.13;;;13.75;;
52031;SDS011;38044;45.148;39.604;2023-10-31T01:13:29;28.75;;;14.75;;
52031;SDS011;38044;45.148;39.604;2023-10-31T01:15:55;23.95;;;15.30;;
52031;SDS011;38044;45.148;39.604;2023-10-31T01:18:21;25.10;;;14.68;;
52031;SDS011;38044;45.148;39.604;2023-10-31T01:20:47;26.48;;;16.63;;
52031;SDS011;38044;45.148;39.604;2023-10-31T01:23:12;28.17;;;15.32;;
52031;SDS011;38044;45.148;39.604;2023-10-31T01:25:38;27.77;;;14.90;;
52031;SDS011;38044;45.148;39.604;2023-10-31T01:28:04;24.55;;;14.70;;
52031;SDS011;38044;45.148;39.604;2023-10-31T01:30:30;27.70;;;14.50;;
52031;SDS011;38044;45.148;39.604;2023-10-31T01:32:55;23.20;;;13.30;;
52031;SDS011;38044;45.148;39.604;2023-10-31T01:35:21;24.58;;;13.32;;
52031;SDS011;38044;45.148;39.604;2023-10-31T01:37:47;19.90;;;11.52;;
52031;SDS011;38044;45.148;39.604;2023-10-31T01:40:13;19.45;;;12.27;;
52031;SDS011;38044;45.148;39.604;2023-10-31T01:42:39;23.25;;;13.20;;
52031;SDS011;38044;45.148;39.604;2023-10-31T01:45:05;24.90;;;13.98;;
52031;SDS011;38044;45.148;39.604;2023-10-31T01:47:32;20.05;;;11.93;;
52031;SDS011;38044;45.148;39.604;2023-10-31T01:49:58;23.20;;;11.90;;
52031;SDS011;38044;45.148;39.604;2023-10-31T01:52:24;20.23;;;12.00;;
52031;SDS011;38044;45.148;39.604;2023-10-31T01:54:51;23.63;;;11.57;;
52031;SDS011;38044;45.148;39.604;2023-10-31T01:57:18;24.95;;;12.00;;
52031;SDS011;38044;45.148;39.604;2023-10-31T01:59:46;20.30;;;11.73;;
52031;SDS011;38044;45.148;39.604;2023-10-31T02:02:12;20.63;;;11.75;;
52031;SDS011;38044;45.148;39.604;2023-10-31T02:04:38;21.45;;;13.23;;
52031;SDS011;38044;45.148;39.604;2023-10-31T02:07:04;23.15;;;11.13;;
52031;SDS011;38044;45.148;39.604;2023-10-31T02:09:30;25.33;;;12.55;;
52031;SDS011;38044;45.148;39.604;2023-10-31T02:11:56;21.98;;;12.55;;
52031;SDS011;38044;45.148;39.604;2023-10-31T02:14:23;24.65;;;12.40;;
52031;SDS011;38044;45.148;39.604;2023-10-31T02:16:49;20.05;;;12.60;;
52031;SDS011;38044;45.148;39.604;2023-10-31T02:19:16;18.83;;;12.23;;
52031;SDS011;38044;45.148;39.604;2023-10-31T02:21:44;19.85;;;12.05;;
52031;SDS011;38044;45.148;39.604;2023-10-31T02:24:10;20.75;;;11.85;;
52031;SDS011;38044;45.148;39.604;2023-10-31T02:26:36;21.27;;;12.70;;
52031;SDS011;38044;45.148;39.604;2023-10-31T02:29:02;28.27;;;12.85;;
52031;SDS011;38044;45.148;39.604;2023-10-31T02:31:28;22.60;;;13.38;;
52031;SDS011;38044;45.148;39.604;2023-10-31T02:33:54;24.83;;;13.18;;
52031;SDS011;38044;45.148;39.604;2023-10-31T02:36:21;23.02;;;13.80;;
52031;SDS011;38044;45.148;39.604;2023-10-31T02:38:47;26.02;;;15.10;;
52031;SDS011;38044;45.148;39.604;2023-10-31T02:41:12;20.85;;;11.90;;
52031;SDS011;38044;45.148;39.604;2023-10-31T02:43:39;20.52;;;12.15;;
52031;SDS011;38044;45.148;39.604;2023-10-31T02:46:05;22.88;;;12.43;;
52031;SDS011;38044;45.148;39.604;2023-10-31T02:48:31;22.48;;;12.27;;
52031;SDS011;38044;45.148;39.604;2023-10-31T02:51:06;23.63;;;13.25;;
52031;SDS011;38044;45.148;39.604;2023-10-31T02:53:33;21.60;;;12.38;;
52031;SDS011;38044;45.148;39.604;2023-10-31T02:56:00;21.42;;;13.07;;
52031;SDS011;38044;45.148;39.604;2023-10-31T02:58:25;24.15;;;12.48;;
52031;SDS011;38044;45.148;39.604;2023-10-31T03:00:51;24.85;;;13.38;;
52031;SDS011;38044;45.148;39.604;2023-10-31T03:03:17;25.80;;;13.27;;
52031;SDS011;38044;45.148;39.604;2023-10-31T03:05:43;26.55;;;13.57;;
52031;SDS011;38044;45.148;39.604;2023-10-31T03:08:09;30.27;;;14.15;;
52031;SDS011;38044;45.148;39.604;2023-10-31T03:10:38;23.00;;;12.15;;
52031;SDS011;38044;45.148;39.604;2023-10-31T03:13:04;30.23;;;14.07;;
52031;SDS011;38044;45.148;39.604;2023-10-31T03:15:30;26.70;;;13.55;;
52031;SDS011;38044;45.148;39.604;2023-10-31T03:17:56;22.95;;;14.00;;
52031;SDS011;38044;45.148;39.604;2023-10-31T03:20:22;24.35;;;12.85;;
52031;SDS011;38044;45.148;39.604;2023-10-31T03:22:48;24.23;;;13.43;;
52031;SDS011;38044;45.148;39.604;2023-10-31T03:25:13;23.92;;;12.52;;
52031;SDS011;38044;45.148;39.604;2023-10-31T03:27:39;20.23;;;12.90;;
52031;SDS011;38044;45.148;39.604;2023-10-31T03:30:05;24.08;;;12.65;;
52031;SDS011;38044;45.148;39.604;2023-10-31T03:32:31;22.63;;;14.70;;
52031;SDS011;38044;45.148;39.604;2023-10-31T03:34:57;23.25;;;12.48;;
52031;SDS011;38044;45.148;39.604;2023-10-31T03:37:23;22.52;;;13.05;;
52031;SDS011;38044;45.148;39.604;2023-10-31T03:39:49;26.35;;;12.88;;
52031;SDS011;38044;45.148;39.604;2023-10-31T03:42:15;27.75;;;13.35;;
52031;SDS011;38044;45.148;39.604;2023-10-31T03:44:41;22.90;;;12.45;;
52031;SDS011;38044;45.148;39.604;2023-10-31T03:47:07;25.92;;;12.68;;
52031;SDS011;38044;45.148;39.604;2023-10-31T03:49:33;28.15;;;13.85;;
52031;SDS011;38044;45.148;39.604;2023-10-31T03:51:59;25.77;;;13.90;;
52031;SDS011;38044;45.148;39.604;2023-10-31T03:54:24;35.08;;;14.00;;
52031;SDS011;38044;45.148;39.604;2023-10-31T03:56:50;34.92;;;13.13;;
52031;SDS011;38044;45.148;39.604;2023-10-31T03:59:16;24.40;;;12.27;;
52031;SDS011;38044;45.148;39.604;2023-10-31T04:01:42;23.85;;;12.90;;
52031;SDS011;38044;45.148;39.604;2023-10-31T04:04:08;22.63;;;12.57;;
52031;SDS011;38044;45.148;39.604;2023-10-31T04:06:34;23.00;;;13.27;;
52031;SDS011;38044;45.148;39.604;2023-10-31T04:08:59;19.50;;;13.15;;
52031;SDS011;38044;45.148;39.604;2023-10-31T04:11:25;21.30;;;12.88;;
52031;SDS011;38044;45.148;39.604;2023-10-31T04:13:51;20.05;;;13.00;;
52031;SDS011;38044;45.148;39.604;2023-10-31T04:16:17;20.35;;;12.68;;
52031;SDS011;38044;45.148;39.604;2023-10-31T04:18:43;30.05;;;12.93;;
52031;SDS011;38044;45.148;39.604;2023-10-31T04:21:08;21.70;;;12.57;;
52031;SDS011;38044;45.148;39.604;2023-10-31T04:23:34;25.65;;;12.70;;
52031;SDS011;38044;45.148;39.604;2023-10-31T04:26:00;20.20;;;11.75;;
52031;SDS011;38044;45.148;39.604;2023-10-31T04:28:26;19.98;;;11.18;;
52031;SDS011;38044;45.148;39.604;2023-10-31T04:30:52;20.17;;;11.63;;
52031;SDS011;38044;45.148;39.604;2023-10-31T04:33:18;19.95;;;11.52;;
52031;SDS011;38044;45.148;39.604;2023-10-31T04:35:43;18.98;;;10.70;;
52031;SDS011;38044;45.148;39.604;2023-10-31T04:38:09;19.92;;;11.25;;
52031;SDS011;38044;45.148;39.604;2023-10-31T04:40:35;24.13;;;11.85;;
52031;SDS011;38044;45.148;39.604;2023-10-31T04:43:01;21.75;;;12.18;;
52031;SDS011;38044;45.148;39.604;2023-10-31T04:45:27;16.52;;;10.25;;
52031;SDS011;38044;45.148;39.604;2023-10-31T04:47:53;19.50;;;11.48;;
52031;SDS011;38044;45.148;39.604;2023-10-31T04:50:19;32.88;;;11.40;;
52031;SDS011;38044;45.148;39.604;2023-10-31T04:52:45;19.77;;;11.32;;
52031;SDS011;38044;45.148;39.604;2023-10-31T04:55:10;17.80;;;11.60;;
52031;SDS011;38044;45.148;39.604;2023-10-31T04:57:36;22.80;;;10.73;;
52031;SDS011;38044;45.148;39.604;2023-10-31T05:00:02;20.38;;;10.63;;
52031;SDS011;38044;45.148;39.604;2023-10-31T05:02:31;21.92;;;10.48;;
52031;SDS011;38044;45.148;39.604;2023-10-31T05:04:56;22.98;;;9.95;;
52031;SDS011;38044;45.148;39.604;2023-10-31T05:07:23;17.30;;;9.52;;
52031;SDS011;38044;45.148;39.604;2023-10-31T05:09:49;15.32;;;9.30;;
52031;SDS011;38044;45.148;39.604;2023-10-31T05:12:15;16.80;;;9.50;;
52031;SDS011;38044;45.148;39.604;2023-10-31T05:14:40;16.60;;;10.88;;
52031;SDS011;38044;45.148;39.604;2023-10-31T05:17:06;22.38;;;10.50;;
52031;SDS011;38044;45.148;39.604;2023-10-31T05:19:32;22.70;;;10.82;;
52031;SDS011;38044;45.148;39.604;2023-10-31T05:21:58;21.88;;;10.30;;
52031;SDS011;38044;45.148;39.604;2023-10-31T05:24:24;16.15;;;9.23;;
52031;SDS011;38044;45.148;39.604;2023-10-31T05:26:49;19.30;;;9.93;;
52031;SDS011;38044;45.148;39.604;2023-10-31T05:29:15;17.35;;;9.38;;
52031;SDS011;38044;45.148;39.604;2023-10-31T05:31:41;19.40;;;9.15;;
52031;SDS011;38044;45.148;39.604;2023-10-31T05:34:08;17.48;;;8.98;;
52031;SDS011;38044;45.148;39.604;2023-10-31T05:36:34;17.60;;;9.57;;
52031;SDS011;38044;45.148;39.604;2023-10-31T05:39:00;16.45;;;9.38;;
52031;SDS011;38044;45.148;39.604;2023-10-31T05:41:25;15.57;;;7.88;;
52031;SDS011;38044;45.148;39.604;2023-10-31T05:43:51;17.92;;;9.20;;
52031;SDS011;38044;45.148;39.604;2023-10-31T05:46:17;16.65;;;8.88;;
52031;SDS011;38044;45.148;39.604;2023-10-31T05:48:44;13.73;;;8.32;;
52031;SDS011;38044;45.148;39.604;2023-10-31T05:51:14;16.15;;;8.50;;
52031;SDS011;38044;45.148;39.604;2023-10-31T05:53:41;14.15;;;9.18;;
52031;SDS011;38044;45.148;39.604;2023-10-31T05:56:10;11.85;;;8.63;;
52031;SDS011;38044;45.148;39.604;2023-10-31T05:58:37;13.57;;;9.00;;
52031;SDS011;38044;45.148;39.604;2023-10-31T06:01:04;18.23;;;8.40;;
52031;SDS011;38044;45.148;39.604;2023-10-31T06:03:30;15.73;;;8.70;;
52031;SDS011;38044;45.148;39.604;2023-10-31T06:05:56;13.90;;;8.30;;
52031;SDS011;38044;45.148;39.604;2023-10-31T06:08:22;10.75;;;8.00;;
52031;SDS011;38044;45.148;39.604;2023-10-31T06:10:49;16.35;;;8.50;;
52031;SDS011;38044;45.148;39.604;2023-10-31T06:13:16;12.27;;;7.78;;
52031;SDS011;38044;45.148;39.604;2023-10-31T06:15:42;13.23;;;7.50;;
52031;SDS011;38044;45.148;39.604;2023-10-31T06:18:08;12.05;;;7.30;;
52031;SDS011;38044;45.148;39.604;2023-10-31T06:20:34;14.05;;;6.85;;
52031;SDS011;38044;45.148;39.604;2023-10-31T06:23:01;10.23;;;7.10;;
52031;SDS011;38044;45.148;39.604;2023-10-31T06:25:30;13.25;;;7.32;;
52031;SDS011;38044;45.148;39.604;2023-10-31T06:27:56;14.50;;;7.07;;
52031;SDS011;38044;45.148;39.604;2023-10-31T06:30:22;15.00;;;7.63;;
52031;SDS011;38044;45.148;39.604;2023-10-31T06:32:50;14.68;;;7.13;;
52031;SDS011;38044;45.148;39.604;2023-10-31T06:35:16;13.35;;;7.68;;
52031;SDS011;38044;45.148;39.604;2023-10-31T06:37:42;16.45;;;7.65;;
52031;SDS011;38044;45.148;39.604;2023-10-31T06:40:08;13.35;;;7.35;;
52031;SDS011;38044;45.148;39.604;2023-10-31T06:42:35;11.82;;;6.63;;
52031;SDS011;38044;45.148;39.604;2023-10-31T06:45:01;10.95;;;6.55;;
52031;SDS011;38044;45.148;39.604;2023-10-31T06:47:27;10.95;;;6.93;;
52031;SDS011;38044;45.148;39.604;2023-10-31T06:49:53;9.07;;;6.50;;
52031;SDS011;38044;45.148;39.604;2023-10-31T06:52:19;10.38;;;6.50;;
52031;SDS011;38044;45.148;39.604;2023-10-31T06:54:45;14.07;;;6.90;;
52031;SDS011;38044;45.148;39.604;2023-10-31T06:57:11;9.68;;;6.97;;
52031;SDS011;38044;45.148;39.604;2023-10-31T06:59:36;8.75;;;6.35;;
52031;SDS011;38044;45.148;39.604;2023-10-31T07:02:02;12.48;;;5.97;;
52031;SDS011;38044;45.148;39.604;2023-10-31T07:04:28;9.75;;;5.80;;
52031;SDS011;38044;45.148;39.604;2023-10-31T07:06:54;12.30;;;6.38;;
52031;SDS011;38044;45.148;39.604;2023-10-31T07:09:25;12.38;;;6.43;;
52031;SDS011;38044;45.148;39.604;2023-10-31T07:11:52;11.43;;;6.50;;
52031;SDS011;38044;45.148;39.604;2023-10-31T07:14:18;12.35;;;6.80;;
52031;SDS011;38044;45.148;39.604;2023-10-31T07:16:44;9.63;;;7.18;;
52031;SDS011;38044;45.148;39.604;2023-10-31T07:19:10;13.73;;;6.53;;
52031;SDS011;38044;45.148;39.604;2023-10-31T07:21:36;12.77;;;6.13;;
52031;SDS011;38044;45.148;39.604;2023-10-31T07:24:02;8.90;;;6.32;;
52031;SDS011;38044;45.148;39.604;2023-10-31T07:26:28;12.23;;;6.07;;
52031;SDS011;38044;45.148;39.604;2023-10-31T07:28:53;8.13;;;5.88;;
52031;SDS011;38044;45.148;39.604;2023-10-31T07:31:19;10.85;;;6.43;;
52031;SDS011;38044;45.148;39.604;2023-10-31T07:33:45;9.05;;;5.82;;
52031;SDS011;38044;45.148;39.604;2023-10-31T07:36:11;16.75;;;6.75;;
52031;SDS011;38044;45.148;39.604;2023-10-31T07:38:38;11.73;;;6.15;;
52031;SDS011;38044;45.148;39.604;2023-10-31T07:41:04;14.98;;;6.47;;
52031;SDS011;38044;45.148;39.604;2023-10-31T07:43:29;7.82;;;5.22;;
52031;SDS011;38044;45.148;39.604;2023-10-31T07:45:55;9.40;;;6.38;;
52031;SDS011;38044;45.148;39.604;2023-10-31T07:48:21;13.40;;;5.97;;
52031;SDS011;38044;45.148;39.604;2023-10-31T07:50:47;8.38;;;6.18;;
52031;SDS011;38044;45.148;39.604;2023-10-31T07:53:12;10.10;;;5.70;;
52031;SDS011;38044;45.148;39.604;2023-10-31T07:55:38;10.27;;;5.88;;
52031;SDS011;38044;45.148;39.604;2023-10-31T07:58:04;12.77;;;5.80;;
52031;SDS011;38044;45.148;39.604;2023-10-31T08:00:30;11.85;;;5.53;;
52031;SDS011;38044;45.148;39.604;2023-10-31T08:02:56;12.07;;;6.00;;
52031;SDS011;38044;45.148;39.604;2023-10-31T08:05:22;8.68;;;4.70;;
52031;SDS011;38044;45.148;39.604;2023-10-31T08:07:47;7.55;;;4.43;;
52031;SDS011;38044;45.148;39.604;2023-10-31T08:10:13;9.13;;;4.32;;
52031;SDS011;38044;45.148;39.604;2023-10-31T08:12:39;8.55;;;4.05;;
52031;SDS011;38044;45.148;39.604;2023-10-31T08:15:05;8.35;;;4.47;;
52031;SDS011;38044;45.148;39.604;2023-10-31T08:17:31;9.50;;;5.00;;
52031;SDS011;38044;45.148;39.604;2023-10-31T08:19:57;9.77;;;4.40;;
52031;SDS011;38044;45.148;39.604;2023-10-31T08:22:23;8.27;;;4.78;;
52031;SDS011;38044;45.148;39.604;2023-10-31T08:24:48;6.00;;;3.72;;
52031;SDS011;38044;45.148;39.604;2023-10-31T08:27:14;6.30;;;3.80;;
52031;SDS011;38044;45.148;39.604;2023-10-31T08:29:40;6.90;;;3.28;;
52031;SDS011;38044;45.148;39.604;2023-10-31T08:32:06;8.18;;;3.28;;
52031;SDS011;38044;45.148;39.604;2023-10-31T08:34:32;7.20;;;3.60;;
52031;SDS011;38044;45.148;39.604;2023-10-31T08:36:58;7.65;;;3.85;;
52031;SDS011;38044;45.148;39.604;2023-10-31T08:39:25;9.70;;;4.03;;
52031;SDS011;38044;45.148;39.604;2023-10-31T08:41:52;9.32;;;3.03;;
52031;SDS011;38044;45.148;39.604;2023-10-31T08:44:18;7.93;;;3.47;;
52031;SDS011;38044;45.148;39.604;2023-10-31T08:46:44;5.07;;;3.05;;
52031;SDS011;38044;45.148;39.604;2023-10-31T08:49:10;9.20;;;4.38;;
52031;SDS011;38044;45.148;39.604;2023-10-31T08:51:37;8.10;;;3.17;;
52031;SDS011;38044;45.148;39.604;2023-10-31T08:54:03;6.05;;;3.28;;
52031;SDS011;38044;45.148;39.604;2023-10-31T08:56:29;6.07;;;3.05;;
52031;SDS011;38044;45.148;39.604;2023-10-31T08:58:54;6.90;;;3.47;;
52031;SDS011;38044;45.148;39.604;2023-10-31T09:01:20;7.70;;;3.95;;
52031;SDS011;38044;45.148;39.604;2023-10-31T09:03:46;7.18;;;3.67;;
52031;SDS011;38044;45.148;39.604;2023-10-31T09:06:12;26.35;;;4.13;;
52031;SDS011;38044;45.148;39.604;2023-10-31T09:08:38;9.18;;;3.97;;
52031;SDS011;38044;45.148;39.604;2023-10-31T09:11:04;6.88;;;3.33;;
52031;SDS011;38044;45.148;39.604;2023-10-31T09:13:31;9.93;;;3.90;;
52031;SDS011;38044;45.148;39.604;2023-10-31T09:15:58;9.25;;;3.47;;
52031;SDS011;38044;45.148;39.604;2023-10-31T09:18:25;7.95;;;3.60;;
52031;SDS011;38044;45.148;39.604;2023-10-31T09:20:51;7.53;;;3.35;;
52031;SDS011;38044;45.148;39.604;2023-10-31T09:23:17;5.47;;;3.60;;
52031;SDS011;38044;45.148;39.604;2023-10-31T09:25:43;6.43;;;3.22;;
52031;SDS011;38044;45.148;39.604;2023-10-31T09:28:09;8.90;;;3.60;;
52031;SDS011;38044;45.148;39.604;2023-10-31T09:30:35;8.73;;;3.65;;
52031;SDS011;38044;45.148;39.604;2023-10-31T09:33:01;9.65;;;4.03;;
52031;SDS011;38044;45.148;39.604;2023-10-31T09:35:27;7.32;;;4.05;;
52031;SDS011;38044;45.148;39.604;2023-10-31T09:37:53;9.10;;;3.50;;
52031;SDS011;38044;45.148;39.604;2023-10-31T09:40:20;6.60;;;3.10;;
52031;SDS011;38044;45.148;39.604;2023-10-31T09:42:49;7.97;;;3.13;;
52031;SDS011;38044;45.148;39.604;2023-10-31T09:45:15;8.13;;;3.72;;
52031;SDS011;38044;45.148;39.604;2023-10-31T09:47:42;9.48;;;3.03;;
52031;SDS011;38044;45.148;39.604;2023-10-31T09:50:08;10.18;;;3.88;;
52031;SDS011;38044;45.148;39.604;2023-10-31T09:52:37;10.30;;;3.78;;
52031;SDS011;38044;45.148;39.604;2023-10-31T09:55:04;8.70;;;3.58;;
52031;SDS011;38044;45.148;39.604;2023-10-31T09:57:31;6.65;;;3.45;;
52031;SDS011;38044;45.148;39.604;2023-10-31T09:59:57;7.32;;;3.15;;
52031;SDS011;38044;45.148;39.604;2023-10-31T10:02:24;9.52;;;3.58;;
52031;SDS011;38044;45.148;39.604;2023-10-31T10:04:50;8.77;;;3.00;;
52031;SDS011;38044;45.148;39.604;2023-10-31T10:07:17;31.65;;;4.30;;
52031;SDS011;38044;45.148;39.604;2023-10-31T10:09:44;9.27;;;3.75;;
52031;SDS011;38044;45.148;39.604;2023-10-31T10:12:14;9.98;;;2.70;;
52031;SDS011;38044;45.148;39.604;2023-10-31T10:14:42;5.85;;;2.88;;
52031;SDS011;38044;45.148;39.604;2023-10-31T10:17:14;29.63;;;4.50;;
52031;SDS011;38044;45.148;39.604;2023-10-31T10:19:41;6.00;;;2.72;;
52031;SDS011;38044;45.148;39.604;2023-10-31T10:22:07;7.15;;;3.20;;
52031;SDS011;38044;45.148;39.604;2023-10-31T10:24:35;5.13;;;2.83;;
52031;SDS011;38044;45.148;39.604;2023-10-31T10:27:04;5.70;;;3.80;;
52031;SDS011;38044;45.148;39.604;2023-10-31T10:29:30;7.13;;;3.20;;
52031;SDS011;38044;45.148;39.604;2023-10-31T10:31:55;8.55;;;5.70;;
52031;SDS011;38044;45.148;39.604;2023-10-31T10:34:22;8.88;;;5.07;;
52031;SDS011;38044;45.148;39.604;2023-10-31T10:36:49;10.75;;;5.22;;
52031;SDS011;38044;45.148;39.604;2023-10-31T10:39:18;9.10;;;5.07;;
52031;SDS011;38044;45.148;39.604;2023-10-31T10:41:46;11.65;;;6.28;;
52031;SDS011;38044;45.148;39.604;2023-10-31T10:44:22;33.13;;;7.60;;
52031;SDS011;38044;45.148;39.604;2023-10-31T10:46:57;11.48;;;6.30;;
52031;SDS011;38044;45.148;39.604;2023-10-31T10:49:27;12.20;;;4.32;;
52031;SDS011;38044;45.148;39.604;2023-10-31T10:51:58;9.07;;;5.13;;
52031;SDS011;38044;45.148;39.604;2023-10-31T10:56:59;10.77;;;5.45;;
52031;SDS011;38044;45.148;39.604;2023-10-31T10:59:41;61.03;;;10.05;;
52031;SDS011;38044;45.148;39.604;2023-10-31T11:02:08;20.42;;;11.15;;
52031;SDS011;38044;45.148;39.604;2023-10-31T11:04:38;11.30;;;7.45;;
52031;SDS011;38044;45.148;39.604;2023-10-31T11:07:05;16.38;;;9.85;;
52031;SDS011;38044;45.148;39.604;2023-10-31T11:09:31;15.85;;;6.70;;
52031;SDS011;38044;45.148;39.604;2023-10-31T11:11:58;7.82;;;4.28;;
52031;SDS011;38044;45.148;39.604;2023-10-31T11:14:25;8.30;;;4.10;;
52031;SDS011;38044;45.148;39.604;2023-10-31T11:16:53;6.45;;;3.78;;
52031;SDS011;38044;45.148;39.604;2023-10-31T11:19:21;6.22;;;2.85;;
52031;SDS011;38044;45.148;39.604;2023-10-31T11:21:59;5.78;;;2.80;;
52031;SDS011;38044;45.148;39.604;2023-10-31T11:24:26;5.88;;;2.50;;
52031;SDS011;38044;45.148;39.604;2023-10-31T11:26:54;8.18;;;2.30;;
52031;SDS011;38044;45.148;39.604;2023-10-31T11:29:25;6.75;;;2.47;;
52031;SDS011;38044;45.148;39.604;2023-10-31T11:31:51;8.77;;;3.45;;
52031;SDS011;38044;45.148;39.604;2023-10-31T11:34:19;4.68;;;2.60;;
52031;SDS011;38044;45.148;39.604;2023-10-31T11:36:45;3.30;;;2.40;;
52031;SDS011;38044;45.148;39.604;2023-10-31T11:39:15;4.03;;;2.78;;
52031;SDS011;38044;45.148;39.604;2023-10-31T11:41:45;5.90;;;3.78;;
52031;SDS011;38044;45.148;39.604;2023-10-31T11:44:15;5.60;;;2.58;;
52031;SDS011;38044;45.148;39.604;2023-10-31T11:46:42;8.27;;;3.10;;
52031;SDS011;38044;45.148;39.604;2023-10-31T11:49:08;5.95;;;2.70;;
52031;SDS011;38044;45.148;39.604;2023-10-31T11:51:34;7.45;;;3.03;;
52031;SDS011;38044;45.148;39.604;2023-10-31T11:54:03;17.48;;;4.15;;
52031;SDS011;38044;45.148;39.604;2023-10-31T11:56:33;5.95;;;2.60;;
52031;SDS011;38044;45.148;39.604;2023-10-31T11:59:01;8.30;;;3.28;;
52031;SDS011;38044;45.148;39.604;2023-10-31T12:01:29;8.57;;;2.72;;
52031;SDS011;38044;45.148;39.604;2023-10-31T12:03:55;7.85;;;2.42;;
52031;SDS011;38044;45.148;39.604;2023-10-31T12:06:21;4.97;;;2.40;;
52031;SDS011;38044;45.148;39.604;2023-10-31T12:08:47;6.03;;;2.65;;
52031;SDS011;38044;45.148;39.604;2023-10-31T12:11:14;8.07;;;3.65;;
52031;SDS011;38044;45.148;39.604;2023-10-31T12:13:42;4.38;;;2.75;;
52031;SDS011;38044;45.148;39.604;2023-10-31T12:16:22;7.43;;;2.97;;
52031;SDS011;38044;45.148;39.604;2023-10-31T12:19:00;7.80;;;2.50;;
52031;SDS011;38044;45.148;39.604;2023-10-31T12:21:49;9.77;;;2.63;;
52031;SDS011;38044;45.148;39.604;2023-10-31T12:24:16;6.15;;;2.60;;
52031;SDS011;38044;45.148;39.604;2023-10-31T12:26:44;6.63;;;2.35;;
52031;SDS011;38044;45.148;39.604;2023-10-31T12:29:18;6.40;;;2.28;;
52031;SDS011;38044;45.148;39.604;2023-10-31T12:31:49;4.50;;;2.20;;
52031;SDS011;38044;45.148;39.604;2023-10-31T12:34:24;6.85;;;2.47;;
52031;SDS011;38044;45.148;39.604;2023-10-31T12:36:51;4.40;;;2.25;;
52031;SDS011;38044;45.148;39.604;2023-10-31T12:39:20;7.13;;;3.33;;
52031;SDS011;38044;45.148;39.604;2023-10-31T12:41:48;12.27;;;4.53;;
52031;SDS011;38044;45.148;39.604;2023-10-31T12:44:15;9.10;;;5.50;;
52031;SDS011;38044;45.148;39.604;2023-10-31T12:46:52;12.13;;;5.55;;
52031;SDS011;38044;45.148;39.604;2023-10-31T12:49:20;10.13;;;4.25;;
52031;SDS011;38044;45.148;39.604;2023-10-31T12:51:59;7.15;;;4.07;;
52031;SDS011;38044;45.148;39.604;2023-10-31T12:54:32;11.05;;;3.40;;
52031;SDS011;38044;45.148;39.604;2023-10-31T12:57:02;5.43;;;2.85;;
52031;SDS011;38044;45.148;39.604;2023-10-31T12:59:30;25.48;;;4.22;;
52031;SDS011;38044;45.148;39.604;2023-10-31T13:02:04;4.80;;;2.92;;
52031;SDS011;38044;45.148;39.604;2023-10-31T13:04:31;5.38;;;2.63;;
52031;SDS011;38044;45.148;39.604;2023-10-31T13:06:58;5.13;;;2.45;;
52031;SDS011;38044;45.148;39.604;2023-10-31T13:09:33;5.15;;;2.50;;
52031;SDS011;38044;45.148;39.604;2023-10-31T13:12:01;6.57;;;2.70;;
52031;SDS011;38044;45.148;39.604;2023-10-31T13:14:28;6.32;;;2.80;;
52031;SDS011;38044;45.148;39.604;2023-10-31T13:16:54;6.72;;;3.08;;
52031;SDS011;38044;45.148;39.604;2023-10-31T13:19:20;6.78;;;3.60;;
52031;SDS011;38044;45.148;39.604;2023-10-31T13:21:46;9.73;;;4.45;;
52031;SDS011;38044;45.148;39.604;2023-10-31T13:24:12;12.48;;;4.40;;
52031;SDS011;38044;45.148;39.604;2023-10-31T13:26:38;17.20;;;6.03;;
52031;SDS011;38044;45.148;39.604;2023-10-31T13:29:04;28.42;;;7.97;;
52031;SDS011;38044;45.148;39.604;2023-10-31T13:31:30;22.38;;;9.52;;
52031;SDS011;38044;45.148;39.604;2023-10-31T13:33:56;20.55;;;8.70;;
52031;SDS011;38044;45.148;39.604;2023-10-31T13:36:22;19.45;;;8.65;;
52031;SDS011;38044;45.148;39.604;2023-10-31T13:38:49;32.05;;;9.45;;
52031;SDS011;38044;45.148;39.604;2023-10-31T13:41:17;17.15;;;7.65;;
52031;SDS011;38044;45.148;39.604;2023-10-31T13:43:47;24.27;;;8.32;;
52031;SDS011;38044;45.148;39.604;2023-10-31T13:46:13;16.90;;;7.18;;
52031;SDS011;38044;45.148;39.604;2023-10-31T13:48:40;14.23;;;5.63;;
52031;SDS011;38044;45.148;39.604;2023-10-31T13:51:06;16.75;;;5.72;;
52031;SDS011;38044;45.148;39.604;2023-10-31T13:53:32;10.40;;;5.03;;
52031;SDS011;38044;45.148;39.604;2023-10-31T13:55:57;11.50;;;4.70;;
52031;SDS011;38044;45.148;39.604;2023-10-31T13:58:23;13.50;;;4.47;;
52031;SDS011;38044;45.148;39.604;2023-10-31T14:00:49;14.57;;;6.07;;
52031;SDS011;38044;45.148;39.604;2023-10-31T14:03:15;11.98;;;5.63;;
52031;SDS011;38044;45.148;39.604;2023-10-31T14:05:41;15.00;;;6.05;;
52031;SDS011;38044;45.148;39.604;2023-10-31T14:08:07;15.15;;;5.18;;
52031;SDS011;38044;45.148;39.604;2023-10-31T14:10:34;15.48;;;6.30;;
52031;SDS011;38044;45.148;39.604;2023-10-31T14:13:00;13.48;;;5.70;;
52031;SDS011;38044;45.148;39.604;2023-10-31T14:15:26;12.70;;;5.60;;
52031;SDS011;38044;45.148;39.604;2023-10-31T14:17:52;17.27;;;6.60;;
52031;SDS011;38044;45.148;39.604;2023-10-31T14:20:18;25.73;;;7.05;;